Terminal Aerodrome Forecast
Issued by NWS

Home | Current Version | Previous Version | Text Only | Print | Product List | Glossary On
Versions: 1 2 3 4 5 6 7 8 9 10 11 12 13 14 15
000
FTAK31 PAFA 201120
TAFASC
TAF
PASC 201120Z 2012/2112 06022G30KT 6SM BR OVC007
     FM201500 07020G30KT 1 1/2SM BR OVC007
     FM202100 07020G28KT 4SM BR OVC012=

USA.gov is the U.S. government's official web portal to all federal, state and local government web resources and services.